Time;durP1;ratioP1;P1;durP2;ratioP2;P2;SDS_P1;SDS_P2;PMS_P1;PMS_P2;Temp;Humidity;BMP_temperature;BMP_pressure;BME280_temperature;BME280_humidity;BME280_pressure;Samples;Min_cycle;Max_cycle;Signal;HPM_P1;HPM_P2
2021/10/01 00:00:42;;;;;;;;;;;16.90;99.90;;;;;;5084661;28;19946;-77
2021/10/01 00:03:08;;;;;;;;;;;17.00;99.90;;;;;;5088044;28;20408;-76
2021/10/01 00:05:34;;;;;;;;;;;17.00;99.90;;;;;;5089938;28;19977;-76
2021/10/01 00:07:59;;;;;;;;;;;17.00;99.90;;;;;;5087310;28;19955;-77
2021/10/01 00:10:25;;;;;;;;;;;17.00;99.90;;;;;;5088716;28;19911;-79
2021/10/01 00:12:51;;;;;;;;;;;16.90;99.90;;;;;;5079592;28;19958;-77
2021/10/01 00:15:16;;;;;;;;;;;16.90;99.90;;;;;;5082951;28;19908;-77
2021/10/01 00:17:42;;;;;;;;;;;17.00;99.90;;;;;;5091264;28;20277;-77
2021/10/01 00:20:08;;;;;;;;;;;16.90;99.90;;;;;;5091148;28;20277;-77
2021/10/01 00:22:34;;;;;;;;;;;17.00;99.90;;;;;;5082532;28;19908;-77
2021/10/01 00:24:59;;;;;;;;;;;16.90;99.90;;;;;;5089567;28;19912;-77
2021/10/01 00:27:25;;;;;;;;;;;17.00;99.90;;;;;;5084076;28;19908;-77
2021/10/01 00:29:51;;;;;;;;;;;16.90;99.90;;;;;;5087516;28;19912;-77
2021/10/01 00:32:17;;;;;;;;;;;16.90;99.90;;;;;;5075461;28;19923;-77
2021/10/01 00:34:42;;;;;;;;;;;16.90;99.90;;;;;;5077115;28;19999;-77
2021/10/01 00:37:08;;;;;;;;;;;16.90;99.90;;;;;;5073378;28;20361;-78
2021/10/01 00:39:34;;;;;;;;;;;16.90;99.90;;;;;;5081458;28;19908;-77
2021/10/01 00:42:00;;;;;;;;;;;16.90;99.90;;;;;;5085615;28;20002;-77
2021/10/01 00:44:26;;;;;;;;;;;16.80;99.90;;;;;;5088086;28;20063;-76
2021/10/01 00:46:52;;;;;;;;;;;16.90;99.90;;;;;;5078216;28;20313;-77
2021/10/01 00:49:18;;;;;;;;;;;16.90;99.90;;;;;;5073231;28;19909;-77
2021/10/01 00:51:44;;;;;;;;;;;16.90;99.90;;;;;;5076039;28;19947;-77
2021/10/01 00:54:09;;;;;;;;;;;17.00;99.90;;;;;;5077791;28;19931;-77
2021/10/01 00:56:35;;;;;;;;;;;17.00;99.90;;;;;;5071856;28;20299;-78
2021/10/01 00:59:01;;;;;;;;;;;17.00;99.90;;;;;;5082180;28;19923;-77
2021/10/01 01:01:26;;;;;;;;;;;16.90;99.90;;;;;;5070410;28;19943;-77
2021/10/01 01:03:54;;;;;;;;;;;17.00;99.90;;;;;;5074157;28;19908;-77
2021/10/01 01:06:26;;;;;;;;;;;17.00;99.90;;;;;;5090667;28;20247;-77
2021/10/01 01:09:10;;;;;;;;;;;16.90;99.90;;;;;;5073624;28;19904;-77
2021/10/01 01:11:36;;;;;;;;;;;16.80;99.90;;;;;;5078448;28;19916;-78
2021/10/01 01:14:19;;;;;;;;;;;16.60;99.90;;;;;;5075737;28;19904;-79
2021/10/01 01:16:45;;;;;;;;;;;16.50;99.90;;;;;;5062530;28;19969;-77
2021/10/01 01:19:18;;;;;;;;;;;16.50;99.90;;;;;;5081780;28;19930;-77
2021/10/01 01:22:01;;;;;;;;;;;16.40;99.90;;;;;;5088443;28;20258;-78
2021/10/01 01:24:46;;;;;;;;;;;16.40;99.90;;;;;;5080102;28;20328;-77
2021/10/01 01:27:30;;;;;;;;;;;16.40;99.90;;;;;;5060827;28;19938;-78
2021/10/01 01:30:04;;;;;;;;;;;16.30;99.90;;;;;;5076228;28;19914;-77
2021/10/01 01:32:32;;;;;;;;;;;16.20;99.90;;;;;;5074185;28;20270;-77
2021/10/01 01:35:06;;;;;;;;;;;16.10;99.90;;;;;;5079746;28;19920;-77
2021/10/01 01:37:52;;;;;;;;;;;16.00;99.90;;;;;;5084294;28;19912;-77
2021/10/01 01:40:19;;;;;;;;;;;16.20;99.90;;;;;;5075253;28;19908;-78
2021/10/01 01:42:46;;;;;;;;;;;16.20;99.90;;;;;;5073253;28;19955;-77
2021/10/01 01:45:13;;;;;;;;;;;16.10;99.90;;;;;;5085007;28;19916;-77
2021/10/01 01:47:39;;;;;;;;;;;15.90;99.90;;;;;;5088953;28;20388;-78
2021/10/01 01:50:06;;;;;;;;;;;15.90;99.90;;;;;;5072399;28;20384;-77
2021/10/01 01:52:32;;;;;;;;;;;15.90;99.90;;;;;;5080951;28;19915;-77
2021/10/01 01:54:58;;;;;;;;;;;16.00;99.90;;;;;;5062789;28;19911;-77
2021/10/01 01:57:25;;;;;;;;;;;16.10;99.90;;;;;;5079790;28;20378;-77
2021/10/01 01:59:50;;;;;;;;;;;16.20;99.90;;;;;;5074380;28;19921;-78
2021/10/01 02:02:18;;;;;;;;;;;16.30;99.90;;;;;;5078677;28;19908;-77
2021/10/01 02:04:44;;;;;;;;;;;16.30;99.90;;;;;;5055180;28;19913;-77
2021/10/01 02:07:10;;;;;;;;;;;16.30;99.90;;;;;;5087022;28;19949;-77
2021/10/01 02:09:37;;;;;;;;;;;16.20;99.90;;;;;;5086008;28;19912;-77
2021/10/01 02:12:03;;;;;;;;;;;16.10;99.90;;;;;;5085715;28;19915;-77
2021/10/01 02:14:30;;;;;;;;;;;16.10;99.90;;;;;;5084566;28;19908;-77
2021/10/01 02:16:56;;;;;;;;;;;16.20;99.90;;;;;;5089044;28;19908;-77
2021/10/01 02:19:24;;;;;;;;;;;16.30;99.90;;;;;;5082172;28;19908;-77
2021/10/01 02:21:50;;;;;;;;;;;16.40;99.90;;;;;;5076586;28;19908;-77
2021/10/01 02:24:16;;;;;;;;;;;16.40;99.90;;;;;;5088077;28;19916;-77
2021/10/01 02:26:50;;;;;;;;;;;16.40;99.90;;;;;;5071556;28;19908;-77
2021/10/01 02:29:26;;;;;;;;;;;16.40;99.90;;;;;;5087645;28;19908;-77
2021/10/01 02:31:54;;;;;;;;;;;16.50;99.90;;;;;;5058066;28;19908;-77
2021/10/01 02:34:22;;;;;;;;;;;16.50;99.90;;;;;;5079013;28;20385;-77
2021/10/01 02:36:47;;;;;;;;;;;16.50;99.90;;;;;;5091029;28;19977;-77
2021/10/01 02:39:13;;;;;;;;;;;16.60;99.90;;;;;;5073116;28;19912;-77
2021/10/01 02:41:39;;;;;;;;;;;16.60;99.90;;;;;;5079198;28;19904;-77
2021/10/01 02:44:04;;;;;;;;;;;16.60;99.90;;;;;;5088715;28;19912;-78
2021/10/01 02:46:30;;;;;;;;;;;16.50;99.90;;;;;;5086936;28;20002;-77
2021/10/01 02:48:56;;;;;;;;;;;16.60;99.90;;;;;;5092361;28;19911;-77
2021/10/01 02:51:23;;;;;;;;;;;16.50;99.90;;;;;;5074550;28;19975;-76
2021/10/01 02:53:55;;;;;;;;;;;16.50;99.90;;;;;;5087334;28;19904;-78
2021/10/01 02:56:42;;;;;;;;;;;16.50;99.90;;;;;;5080965;28;20302;-77
2021/10/01 02:59:10;;;;;;;;;;;16.40;99.90;;;;;;5089886;28;20366;-77
2021/10/01 03:01:36;;;;;;;;;;;16.50;99.90;;;;;;5079978;28;19915;-77
2021/10/01 03:04:04;;;;;;;;;;;16.40;99.90;;;;;;5078050;28;19961;-77
2021/10/01 03:06:32;;;;;;;;;;;16.50;99.90;;;;;;5076829;28;19913;-77
2021/10/01 03:08:58;;;;;;;;;;;16.40;99.90;;;;;;5079497;28;19904;-77
2021/10/01 03:11:24;;;;;;;;;;;16.40;99.90;;;;;;5077588;28;20259;-77
2021/10/01 03:13:49;;;;;;;;;;;16.40;99.90;;;;;;5076170;28;19969;-76
2021/10/01 03:16:17;;;;;;;;;;;16.50;99.90;;;;;;5074354;28;19908;-77
2021/10/01 03:18:43;;;;;;;;;;;16.50;99.90;;;;;;5094913;28;19908;-78
2021/10/01 03:21:09;;;;;;;;;;;16.40;99.90;;;;;;5083220;28;19919;-78
2021/10/01 03:23:34;;;;;;;;;;;16.40;99.90;;;;;;5073140;28;19909;-76
2021/10/01 03:26:00;;;;;;;;;;;16.40;99.90;;;;;;5078659;28;19915;-77
2021/10/01 03:28:26;;;;;;;;;;;16.40;99.90;;;;;;5079381;28;19970;-77
2021/10/01 03:30:52;;;;;;;;;;;16.40;99.90;;;;;;5081620;28;19909;-76
2021/10/01 03:33:18;;;;;;;;;;;16.40;99.90;;;;;;5061295;28;19908;-76
2021/10/01 03:35:45;;;;;;;;;;;16.40;99.90;;;;;;5081544;28;19975;-78
2021/10/01 03:38:12;;;;;;;;;;;16.30;99.90;;;;;;5072993;28;19916;-77
2021/10/01 03:40:37;;;;;;;;;;;16.30;99.90;;;;;;5075607;28;19934;-76
2021/10/01 03:43:03;;;;;;;;;;;16.20;99.90;;;;;;5085815;28;19912;-77
2021/10/01 03:45:28;;;;;;;;;;;16.30;99.90;;;;;;5084312;28;19919;-77
2021/10/01 03:47:55;;;;;;;;;;;16.30;99.90;;;;;;5088483;28;19916;-76
2021/10/01 03:50:21;;;;;;;;;;;16.20;99.90;;;;;;5086874;28;19912;-76
2021/10/01 03:52:46;;;;;;;;;;;16.20;99.90;;;;;;5060002;28;20377;-78
2021/10/01 03:55:19;;;;;;;;;;;16.20;99.90;;;;;;5055841;28;19912;-77
2021/10/01 03:57:45;;;;;;;;;;;16.20;99.90;;;;;;5082869;28;20002;-77
2021/10/01 04:00:11;;;;;;;;;;;16.10;99.90;;;;;;5090050;28;19955;-77
2021/10/01 04:02:37;;;;;;;;;;;16.10;99.90;;;;;;5066812;28;19960;-77
2021/10/01 04:05:02;;;;;;;;;;;16.10;99.90;;;;;;5074686;28;20387;-76
2021/10/01 04:07:28;;;;;;;;;;;16.00;99.90;;;;;;5088765;28;20447;-76
2021/10/01 04:09:54;;;;;;;;;;;15.90;99.90;;;;;;5083426;28;19916;-77
2021/10/01 04:12:20;;;;;;;;;;;15.90;99.90;;;;;;5076839;28;20362;-76
2021/10/01 04:14:46;;;;;;;;;;;16.00;99.90;;;;;;5091984;28;19904;-76
2021/10/01 04:17:12;;;;;;;;;;;16.00;99.90;;;;;;5087433;28;19908;-76
2021/10/01 04:19:37;;;;;;;;;;;16.00;99.90;;;;;;5091811;28;19989;-78
2021/10/01 04:22:03;;;;;;;;;;;16.10;99.90;;;;;;5089805;28;20393;-77
2021/10/01 04:24:29;;;;;;;;;;;16.00;99.90;;;;;;5089687;28;19908;-77
2021/10/01 04:26:55;;;;;;;;;;;16.00;99.90;;;;;;5088519;28;19993;-78
2021/10/01 04:29:20;;;;;;;;;;;16.00;99.90;;;;;;5080634;28;20365;-77
2021/10/01 04:31:46;;;;;;;;;;;16.00;99.90;;;;;;5079704;28;19943;-77
2021/10/01 04:34:12;;;;;;;;;;;16.00;99.90;;;;;;5076591;28;19962;-76
2021/10/01 04:36:37;;;;;;;;;;;16.00;99.90;;;;;;5079111;28;19915;-76
2021/10/01 04:39:03;;;;;;;;;;;16.00;99.90;;;;;;5075595;28;20290;-77
2021/10/01 04:41:29;;;;;;;;;;;16.00;99.90;;;;;;5078557;28;20075;-77
2021/10/01 04:43:55;;;;;;;;;;;16.00;99.90;;;;;;5090293;28;19911;-77
2021/10/01 04:46:21;;;;;;;;;;;15.90;99.90;;;;;;5089551;28;19916;-76
2021/10/01 04:48:46;;;;;;;;;;;15.90;99.90;;;;;;5089581;28;19911;-77
2021/10/01 04:51:12;;;;;;;;;;;15.80;99.90;;;;;;5084195;28;19907;-77
2021/10/01 04:53:38;;;;;;;;;;;15.80;99.90;;;;;;5083074;28;19965;-77
2021/10/01 04:56:03;;;;;;;;;;;15.80;99.90;;;;;;5075454;28;20461;-77
2021/10/01 04:58:29;;;;;;;;;;;15.80;99.90;;;;;;5072237;28;20420;-77
2021/10/01 05:00:55;;;;;;;;;;;15.80;99.90;;;;;;5081306;28;19931;-77
2021/10/01 05:03:20;;;;;;;;;;;15.70;99.90;;;;;;5083457;28;19934;-76
2021/10/01 05:05:46;;;;;;;;;;;15.70;99.90;;;;;;5072103;28;19919;-78
2021/10/01 05:08:11;;;;;;;;;;;15.70;99.90;;;;;;5080175;28;20401;-76
2021/10/01 05:10:37;;;;;;;;;;;15.70;99.90;;;;;;5077103;28;19908;-76
2021/10/01 05:13:03;;;;;;;;;;;15.70;99.90;;;;;;5076674;28;19930;-76
2021/10/01 05:15:28;;;;;;;;;;;15.70;99.90;;;;;;5087999;28;19915;-77
2021/10/01 05:17:56;;;;;;;;;;;15.70;99.90;;;;;;5085982;28;19908;-76
2021/10/01 05:20:22;;;;;;;;;;;15.70;99.90;;;;;;5083526;28;19948;-76
2021/10/01 05:22:47;;;;;;;;;;;15.60;99.90;;;;;;5085691;28;19947;-76
2021/10/01 05:25:13;;;;;;;;;;;15.60;99.90;;;;;;5086166;28;19912;-76
2021/10/01 05:27:39;;;;;;;;;;;15.60;99.90;;;;;;5081673;28;20054;-76
2021/10/01 05:30:05;;;;;;;;;;;15.70;99.90;;;;;;5067383;28;19916;-76
2021/10/01 05:32:31;;;;;;;;;;;15.70;99.90;;;;;;5068678;28;19912;-77
2021/10/01 05:34:56;;;;;;;;;;;15.80;99.90;;;;;;5072576;28;19919;-77
2021/10/01 05:37:22;;;;;;;;;;;15.80;99.90;;;;;;5079565;28;19912;-76
2021/10/01 05:39:48;;;;;;;;;;;15.90;99.90;;;;;;5093141;28;19948;-78
2021/10/01 05:42:13;;;;;;;;;;;15.90;99.90;;;;;;5084309;28;19915;-77
2021/10/01 05:44:39;;;;;;;;;;;15.90;99.90;;;;;;5103931;28;20258;-77
2021/10/01 05:47:06;;;;;;;;;;;15.90;99.90;;;;;;5094701;28;20398;-78
2021/10/01 05:49:42;;;;;;;;;;;15.80;99.90;;;;;;5091487;28;20346;-77
2021/10/01 05:52:17;;;;;;;;;;;15.80;99.90;;;;;;5074719;28;20024;-76
2021/10/01 05:54:42;;;;;;;;;;;15.70;99.90;;;;;;5086428;28;20000;-77
2021/10/01 05:57:09;;;;;;;;;;;15.60;99.90;;;;;;5082670;28;19939;-76
2021/10/01 05:59:37;;;;;;;;;;;15.50;99.90;;;;;;5097310;28;19994;-77
2021/10/01 06:02:02;;;;;;;;;;;15.60;99.90;;;;;;5090502;28;19914;-76
2021/10/01 06:04:28;;;;;;;;;;;15.60;99.90;;;;;;5101922;28;19904;-77
2021/10/01 06:06:54;;;;;;;;;;;15.70;99.90;;;;;;5086894;28;20253;-77
2021/10/01 06:09:20;;;;;;;;;;;15.70;99.90;;;;;;5094348;28;20324;-75
2021/10/01 06:11:46;;;;;;;;;;;15.80;99.90;;;;;;5086335;28;19931;-75
2021/10/01 06:14:11;;;;;;;;;;;15.90;99.90;;;;;;5087520;28;19908;-77
2021/10/01 06:16:37;;;;;;;;;;;15.90;99.90;;;;;;5082620;28;19961;-73
2021/10/01 06:19:04;;;;;;;;;;;16.00;99.90;;;;;;5092812;28;19905;-74
2021/10/01 06:21:29;;;;;;;;;;;16.20;99.90;;;;;;5085424;28;20338;-75
2021/10/01 06:23:55;;;;;;;;;;;16.10;99.90;;;;;;5083744;28;19908;-75
2021/10/01 06:26:21;;;;;;;;;;;16.20;99.90;;;;;;5083798;28;20010;-75
2021/10/01 06:28:46;;;;;;;;;;;16.30;99.90;;;;;;5087409;28;19998;-76
2021/10/01 06:31:12;;;;;;;;;;;16.30;99.90;;;;;;5072320;28;19908;-75
2021/10/01 06:33:38;;;;;;;;;;;16.30;99.90;;;;;;5071224;28;19904;-76
2021/10/01 06:36:04;;;;;;;;;;;16.40;99.90;;;;;;5065244;28;20259;-74
2021/10/01 06:38:31;;;;;;;;;;;16.40;99.90;;;;;;5060536;28;20316;-74
2021/10/01 06:40:58;;;;;;;;;;;16.40;99.90;;;;;;5082775;28;19911;-75
2021/10/01 06:43:24;;;;;;;;;;;16.50;99.90;;;;;;5087372;28;19911;-76
2021/10/01 06:45:52;;;;;;;;;;;16.60;99.90;;;;;;5092757;28;20471;-76
2021/10/01 06:48:43;;;;;;;;;;;16.70;99.90;;;;;;5071248;28;19905;-77
2021/10/01 08:19:42;;;;;;;;;;;18.60;99.90;;;;;;5083468;28;19915;-74
2021/10/01 08:22:09;;;;;;;;;;;18.70;99.90;;;;;;5070288;28;19997;-73
2021/10/01 08:24:34;;;;;;;;;;;18.60;99.90;;;;;;5078701;28;19962;-74
2021/10/01 08:27:00;;;;;;;;;;;18.70;99.90;;;;;;5074916;28;19912;-74
2021/10/01 08:29:26;;;;;;;;;;;18.80;99.90;;;;;;5065514;28;19908;-74
2021/10/01 08:31:59;;;;;;;;;;;18.70;99.90;;;;;;5082790;28;19904;-73
2021/10/01 08:34:24;;;;;;;;;;;18.80;99.90;;;;;;5076550;28;20341;-73
2021/10/01 08:36:50;;;;;;;;;;;18.80;99.90;;;;;;5075456;28;19909;-74
2021/10/01 08:39:16;;;;;;;;;;;18.90;99.90;;;;;;5075121;28;19900;-74
2021/10/01 08:41:41;;;;;;;;;;;18.90;99.90;;;;;;5071951;28;20000;-74
2021/10/01 08:44:07;;;;;;;;;;;18.80;99.90;;;;;;5057618;28;19923;-76
2021/10/01 08:46:33;;;;;;;;;;;18.80;99.90;;;;;;5048778;28;19982;-74
2021/10/01 08:49:00;;;;;;;;;;;19.00;99.90;;;;;;5066312;28;19919;-74
2021/10/01 08:51:26;;;;;;;;;;;19.00;99.90;;;;;;5076506;28;19973;-74
2021/10/01 08:53:52;;;;;;;;;;;19.10;99.90;;;;;;5067461;28;19951;-74
2021/10/01 08:56:18;;;;;;;;;;;19.20;99.90;;;;;;5080586;28;20294;-76
2021/10/01 08:58:44;;;;;;;;;;;19.40;99.90;;;;;;5086132;28;20127;-74
2021/10/01 09:01:09;;;;;;;;;;;19.50;99.90;;;;;;5074922;28;19908;-73
2021/10/01 09:03:35;;;;;;;;;;;19.50;99.90;;;;;;5084066;28;20023;-74
2021/10/01 09:06:00;;;;;;;;;;;19.50;99.90;;;;;;5074244;28;20377;-75
2021/10/01 09:08:26;;;;;;;;;;;19.50;99.90;;;;;;5063411;28;19950;-74
2021/10/01 09:10:56;;;;;;;;;;;19.60;99.90;;;;;;5070230;28;19909;-73
2021/10/01 09:13:21;;;;;;;;;;;19.70;99.90;;;;;;5077440;28;19921;-74
2021/10/01 09:15:47;;;;;;;;;;;19.70;99.90;;;;;;5079347;28;19911;-74
2021/10/01 09:18:13;;;;;;;;;;;19.70;99.90;;;;;;5078227;28;19904;-73
2021/10/01 09:20:38;;;;;;;;;;;19.60;99.90;;;;;;5075539;28;19912;-74
2021/10/01 09:23:12;;;;;;;;;;;19.60;99.90;;;;;;5053046;28;19908;-74
2021/10/01 09:25:37;;;;;;;;;;;19.70;99.90;;;;;;5078019;28;19919;-75
2021/10/01 09:28:03;;;;;;;;;;;19.70;99.90;;;;;;5077735;28;20134;-74
2021/10/01 09:30:29;;;;;;;;;;;19.70;99.90;;;;;;5061808;28;19908;-73
2021/10/01 09:33:11;;;;;;;;;;;19.80;99.90;;;;;;5075962;28;19977;-74
2021/10/01 09:35:37;;;;;;;;;;;19.80;99.90;;;;;;5072651;28;19919;-75
2021/10/01 09:38:04;;;;;;;;;;;19.70;99.90;;;;;;5076419;28;19908;-74
2021/10/01 09:40:30;;;;;;;;;;;19.80;99.90;;;;;;5077420;28;20264;-74
2021/10/01 09:42:56;;;;;;;;;;;20.00;99.90;;;;;;5074625;28;19958;-75
2021/10/01 09:45:22;;;;;;;;;;;20.10;99.90;;;;;;5072697;28;19912;-75
2021/10/01 09:47:48;;;;;;;;;;;20.10;99.90;;;;;;5077881;28;19911;-74
2021/10/01 09:50:16;;;;;;;;;;;20.10;99.90;;;;;;5073228;28;19930;-74
2021/10/01 09:52:43;;;;;;;;;;;20.20;99.90;;;;;;5080966;28;19904;-74
2021/10/01 09:55:09;;;;;;;;;;;20.20;99.90;;;;;;5073808;28;20020;-75
2021/10/01 09:57:38;;;;;;;;;;;20.20;99.90;;;;;;5080543;28;20349;-74
2021/10/01 10:00:05;;;;;;;;;;;20.40;99.90;;;;;;5085380;28;19977;-75
2021/10/01 10:02:35;;;;;;;;;;;20.20;99.90;;;;;;5076499;28;20405;-74
2021/10/01 10:05:01;;;;;;;;;;;20.30;99.90;;;;;;5082139;28;19916;-76
2021/10/01 10:07:27;;;;;;;;;;;20.50;99.90;;;;;;5062540;28;20086;-74
2021/10/01 10:10:11;;;;;;;;;;;20.60;99.90;;;;;;5054043;28;19904;-74
2021/10/01 10:12:39;;;;;;;;;;;20.50;99.90;;;;;;5053111;28;19951;-74
2021/10/01 10:15:09;;;;;;;;;;;20.50;99.90;;;;;;5052581;28;19905;-74
2021/10/01 10:17:37;;;;;;;;;;;20.50;99.90;;;;;;5052985;28;20460;-74
2021/10/01 10:20:03;;;;;;;;;;;20.50;99.90;;;;;;5067590;28;20011;-74
2021/10/01 10:22:29;;;;;;;;;;;20.50;99.90;;;;;;5073837;28;20367;-75
2021/10/01 10:24:56;;;;;;;;;;;20.60;99.90;;;;;;5059984;28;19909;-75
2021/10/01 10:27:22;;;;;;;;;;;20.70;99.90;;;;;;5035911;28;19923;-75
2021/10/01 10:29:48;;;;;;;;;;;20.70;99.90;;;;;;5053744;28;19927;-76
2021/10/01 10:32:14;;;;;;;;;;;20.70;99.90;;;;;;5052111;28;20358;-75
2021/10/01 10:34:53;;;;;;;;;;;20.80;99.90;;;;;;5054942;28;19927;-75
2021/10/01 10:37:20;;;;;;;;;;;20.80;99.90;;;;;;5066874;28;19951;-76
2021/10/01 10:39:48;;;;;;;;;;;20.90;99.90;;;;;;5073990;28;19920;-75
2021/10/01 10:42:30;;;;;;;;;;;21.00;99.90;;;;;;5057623;28;20016;-76
2021/10/01 10:45:09;;;;;;;;;;;21.00;99.90;;;;;;5056617;28;19911;-76
2021/10/01 10:47:38;;;;;;;;;;;21.20;99.90;;;;;;5057444;28;20017;-75
2021/10/01 10:50:24;;;;;;;;;;;21.20;99.90;;;;;;5056413;28;19905;-75
2021/10/01 10:53:05;;;;;;;;;;;21.10;99.90;;;;;;5057641;28;20171;-76
2021/10/01 10:55:54;;;;;;;;;;;21.10;99.90;;;;;;5086343;28;19916;-75
2021/10/01 10:58:23;;;;;;;;;;;21.20;99.90;;;;;;5069995;28;19915;-76
2021/10/01 11:00:56;;;;;;;;;;;21.30;99.90;;;;;;5086323;28;19915;-75
2021/10/01 11:03:23;;;;;;;;;;;21.40;99.90;;;;;;5079559;28;19912;-76
2021/10/01 11:06:07;;;;;;;;;;;21.30;99.90;;;;;;5081286;28;19912;-75
2021/10/01 11:08:33;;;;;;;;;;;21.30;99.90;;;;;;5071847;28;19909;-75
2021/10/01 11:10:59;;;;;;;;;;;21.30;99.90;;;;;;5086060;28;19915;-75
2021/10/01 11:13:25;;;;;;;;;;;21.40;99.90;;;;;;5092356;28;19912;-75
2021/10/01 11:16:09;;;;;;;;;;;21.50;99.90;;;;;;5081311;28;19912;-75
2021/10/01 11:18:35;;;;;;;;;;;21.70;99.90;;;;;;5084924;28;19907;-75
2021/10/01 11:21:21;;;;;;;;;;;21.50;99.90;;;;;;5082931;28;19919;-76
2021/10/01 11:23:56;;;;;;;;;;;21.50;99.90;;;;;;5075252;28;19939;-75
2021/10/01 11:26:30;;;;;;;;;;;21.50;99.90;;;;;;5077855;28;19970;-75
2021/10/01 11:28:55;;;;;;;;;;;21.40;99.90;;;;;;5075186;28;20029;-75
2021/10/01 11:31:21;;;;;;;;;;;21.40;99.90;;;;;;5076675;28;19920;-75
2021/10/01 11:33:50;;;;;;;;;;;21.50;99.90;;;;;;5077454;28;19916;-75
2021/10/01 11:36:16;;;;;;;;;;;21.60;99.90;;;;;;5086348;28;19908;-75
2021/10/01 11:38:42;;;;;;;;;;;21.70;99.90;;;;;;5079333;28;19999;-76
2021/10/01 11:41:10;;;;;;;;;;;21.60;99.90;;;;;;5070224;28;20313;-80
2021/10/01 11:43:45;;;;;;;;;;;21.70;99.90;;;;;;5081904;28;19926;-76
2021/10/01 11:46:12;;;;;;;;;;;21.80;99.90;;;;;;5072398;28;19916;-76
2021/10/01 11:48:38;;;;;;;;;;;21.90;99.90;;;;;;5064229;28;19913;-76
2021/10/01 11:51:09;;;;;;;;;;;22.00;99.90;;;;;;5082022;28;20046;-75
2021/10/01 11:53:36;;;;;;;;;;;21.80;99.90;;;;;;5078352;28;20041;-79
2021/10/01 11:56:04;;;;;;;;;;;21.70;99.90;;;;;;5076512;28;19951;-76
2021/10/01 11:58:31;;;;;;;;;;;21.80;99.90;;;;;;5074786;28;19915;-75
2021/10/01 12:01:14;;;;;;;;;;;21.90;99.90;;;;;;5084039;28;19915;-75
2021/10/01 12:04:06;;;;;;;;;;;21.90;99.90;;;;;;5073980;28;19908;-75
2021/10/01 12:06:35;;;;;;;;;;;21.90;99.90;;;;;;5080322;28;19912;-75
2021/10/01 12:09:03;;;;;;;;;;;22.20;99.90;;;;;;5090602;28;19977;-75
2021/10/01 12:11:38;;;;;;;;;;;22.30;99.90;;;;;;5068472;28;19931;-76
2021/10/01 12:14:12;;;;;;;;;;;22.30;99.90;;;;;;5085232;28;19939;-76
2021/10/01 12:16:39;;;;;;;;;;;22.30;99.90;;;;;;5088889;28;19907;-75
2021/10/01 12:19:05;;;;;;;;;;;22.30;99.90;;;;;;5083013;28;19983;-75
2021/10/01 12:21:31;;;;;;;;;;;22.20;99.90;;;;;;5076458;28;19912;-76
2021/10/01 12:24:11;;;;;;;;;;;22.20;99.90;;;;;;5083655;28;19908;-77
2021/10/01 12:26:41;;;;;;;;;;;22.30;99.90;;;;;;5090629;28;19918;-76
2021/10/01 12:29:07;;;;;;;;;;;22.40;99.90;;;;;;5079249;28;20267;-75
2021/10/01 12:31:37;;;;;;;;;;;22.40;99.90;;;;;;5063178;28;19970;-75
2021/10/01 12:34:04;;;;;;;;;;;22.40;99.90;;;;;;5068843;28;19923;-76
2021/10/01 12:36:30;;;;;;;;;;;22.30;99.90;;;;;;5075764;28;19951;-76
2021/10/01 12:38:57;;;;;;;;;;;22.40;99.90;;;;;;5076919;28;19954;-76
2021/10/01 12:41:23;;;;;;;;;;;22.50;99.90;;;;;;5079082;28;19930;-76
2021/10/01 12:43:49;;;;;;;;;;;22.60;99.90;;;;;;5094638;28;20004;-76
2021/10/01 12:46:33;;;;;;;;;;;22.70;99.90;;;;;;5076330;28;20204;-76
2021/10/01 12:49:18;;;;;;;;;;;22.70;99.90;;;;;;5070550;28;19919;-76
2021/10/01 12:52:02;;;;;;;;;;;22.80;99.90;;;;;;5083332;28;19907;-76
2021/10/01 12:54:30;;;;;;;;;;;22.90;99.90;;;;;;5083532;28;19924;-76
2021/10/01 12:57:14;;;;;;;;;;;22.90;99.90;;;;;;5074889;28;19958;-76
2021/10/01 12:59:45;;;;;;;;;;;22.90;99.90;;;;;;5077206;28;20404;-76
2021/10/01 13:02:13;;;;;;;;;;;22.90;99.90;;;;;;5079140;28;19964;-76
2021/10/01 13:04:45;;;;;;;;;;;22.90;99.90;;;;;;5074324;28;19936;-76
2021/10/01 13:07:20;;;;;;;;;;;22.80;99.90;;;;;;5076472;28;19922;-77
2021/10/01 13:09:46;;;;;;;;;;;22.70;99.90;;;;;;5071424;28;20340;-76
2021/10/01 13:12:25;;;;;;;;;;;22.70;99.90;;;;;;5061511;28;19930;-75
2021/10/01 13:15:06;;;;;;;;;;;22.60;99.90;;;;;;5085393;28;19938;-79
2021/10/01 13:17:32;;;;;;;;;;;22.60;99.90;;;;;;5077182;28;20017;-76
2021/10/01 13:19:58;;;;;;;;;;;22.70;99.90;;;;;;5071349;28;19932;-76
2021/10/01 13:22:24;;;;;;;;;;;22.70;99.90;;;;;;5070575;28;20358;-75
2021/10/01 13:24:55;;;;;;;;;;;22.80;99.90;;;;;;5064954;28;19908;-76
2021/10/01 13:27:21;;;;;;;;;;;22.90;99.90;;;;;;5074589;28;20357;-76
2021/10/01 13:29:46;;;;;;;;;;;23.00;99.90;;;;;;5069381;28;19947;-75
2021/10/01 13:32:12;;;;;;;;;;;23.10;99.90;;;;;;5078367;28;19908;-76
2021/10/01 13:34:38;;;;;;;;;;;23.20;99.90;;;;;;5075418;28;20290;-74
2021/10/01 13:37:04;;;;;;;;;;;23.10;99.90;;;;;;5066549;28;19957;-75
2021/10/01 13:39:29;;;;;;;;;;;22.80;99.90;;;;;;5090242;28;20413;-76
2021/10/01 13:41:55;;;;;;;;;;;22.40;99.90;;;;;;5081993;28;19955;-75
2021/10/01 13:44:21;;;;;;;;;;;22.20;99.90;;;;;;5090585;28;19910;-75
2021/10/01 13:46:46;;;;;;;;;;;22.00;99.90;;;;;;5099148;28;19965;-76
2021/10/01 13:49:12;;;;;;;;;;;21.70;99.90;;;;;;5092311;28;19892;-75
2021/10/01 13:51:38;;;;;;;;;;;21.40;99.90;;;;;;5106383;28;19914;-75
2021/10/01 13:54:03;;;;;;;;;;;21.40;99.90;;;;;;5110213;28;19911;-77
2021/10/01 13:56:29;;;;;;;;;;;21.30;99.90;;;;;;5075515;28;19967;-75
2021/10/01 13:58:55;;;;;;;;;;;21.30;99.90;;;;;;5069670;28;19912;-76
2021/10/01 14:01:20;;;;;;;;;;;21.10;99.90;;;;;;5078227;28;19931;-76
2021/10/01 14:03:46;;;;;;;;;;;21.00;99.90;;;;;;5089294;28;19908;-76
2021/10/01 14:06:12;;;;;;;;;;;21.00;99.90;;;;;;5072310;28;19919;-76
2021/10/01 14:08:37;;;;;;;;;;;21.00;99.90;;;;;;5063988;28;19904;-75
2021/10/01 14:11:03;;;;;;;;;;;21.00;99.90;;;;;;5090583;28;19926;-75
2021/10/01 14:13:29;;;;;;;;;;;21.00;99.90;;;;;;5087430;28;19909;-76
2021/10/01 14:15:55;;;;;;;;;;;21.00;99.90;;;;;;5069105;28;19913;-75
2021/10/01 14:18:23;;;;;;;;;;;21.00;99.90;;;;;;5067108;28;19920;-76
2021/10/01 14:20:48;;;;;;;;;;;21.00;99.90;;;;;;5067774;28;20033;-75
2021/10/01 14:23:14;;;;;;;;;;;21.00;99.90;;;;;;5072892;28;19950;-76
2021/10/01 14:25:41;;;;;;;;;;;20.90;99.90;;;;;;5071370;28;20297;-75
2021/10/01 14:28:07;;;;;;;;;;;20.90;99.90;;;;;;5079552;28;19924;-75
2021/10/01 14:30:34;;;;;;;;;;;20.90;99.90;;;;;;5070145;28;19956;-75
2021/10/01 14:33:00;;;;;;;;;;;21.00;99.90;;;;;;5078100;28;19908;-76
2021/10/01 14:35:26;;;;;;;;;;;21.00;99.90;;;;;;5064894;28;19912;-76
2021/10/01 14:37:53;;;;;;;;;;;21.00;99.90;;;;;;5072058;28;20293;-75
2021/10/01 14:40:18;;;;;;;;;;;21.00;99.90;;;;;;5068917;28;20397;-78
2021/10/01 14:42:44;;;;;;;;;;;20.90;99.90;;;;;;5067115;28;19923;-75
2021/10/01 14:45:11;;;;;;;;;;;21.00;99.90;;;;;;5073968;28;19912;-74
2021/10/01 14:47:37;;;;;;;;;;;21.00;99.90;;;;;;5090014;28;19950;-75
2021/10/01 14:50:08;;;;;;;;;;;21.00;99.90;;;;;;5078580;28;20294;-77
2021/10/01 14:52:35;;;;;;;;;;;21.00;99.90;;;;;;5065430;28;19913;-74
2021/10/01 14:55:01;;;;;;;;;;;20.90;99.90;;;;;;5061266;28;19908;-75
2021/10/01 14:57:27;;;;;;;;;;;20.80;99.90;;;;;;5088793;28;19908;-75
2021/10/01 14:59:54;;;;;;;;;;;20.80;99.90;;;;;;5083840;28;20443;-75
2021/10/01 15:02:20;;;;;;;;;;;20.90;99.90;;;;;;5079637;28;19937;-75
2021/10/01 15:04:46;;;;;;;;;;;20.90;99.90;;;;;;5079798;28;19924;-75
2021/10/01 15:07:12;;;;;;;;;;;20.80;99.90;;;;;;5054594;28;19947;-75
2021/10/01 15:09:37;;;;;;;;;;;20.90;99.90;;;;;;5046438;28;19980;-75
2021/10/01 15:12:03;;;;;;;;;;;20.90;99.90;;;;;;5078932;28;20032;-76
2021/10/01 15:14:29;;;;;;;;;;;20.90;99.90;;;;;;5071591;28;19991;-76
2021/10/01 15:16:55;;;;;;;;;;;21.00;99.90;;;;;;5079752;28;19916;-76
2021/10/01 15:19:20;;;;;;;;;;;20.80;99.90;;;;;;5088645;28;19923;-76
2021/10/01 15:21:46;;;;;;;;;;;20.80;99.90;;;;;;5078446;28;20412;-76
2021/10/01 15:24:12;;;;;;;;;;;20.80;99.90;;;;;;5084997;28;19969;-75
2021/10/01 15:26:38;;;;;;;;;;;20.70;99.90;;;;;;5081341;28;20370;-76
2021/10/01 15:29:04;;;;;;;;;;;20.70;99.90;;;;;;5092822;28;19969;-76
2021/10/01 15:31:30;;;;;;;;;;;20.60;99.90;;;;;;5075648;28;19908;-76
2021/10/01 15:33:55;;;;;;;;;;;20.70;99.90;;;;;;5082123;28;19995;-75
2021/10/01 15:36:23;;;;;;;;;;;20.60;99.90;;;;;;5072581;28;19920;-75
2021/10/01 15:38:49;;;;;;;;;;;20.60;99.90;;;;;;5080613;28;19958;-75
2021/10/01 15:41:16;;;;;;;;;;;20.60;99.90;;;;;;5075988;28;19928;-75
2021/10/01 15:43:41;;;;;;;;;;;20.60;99.90;;;;;;5087991;28;20427;-76
2021/10/01 15:46:07;;;;;;;;;;;20.50;99.90;;;;;;5086037;28;19916;-75
2021/10/01 15:48:33;;;;;;;;;;;20.50;99.90;;;;;;5062222;28;19931;-77